sensor_id;sensor_type;location;lat;lon;timestamp;temperature;humidity
4556;DHT22;2290;48.674;9.018;2022-09-09T00:01:46;16.40;99.90
4556;DHT22;2290;48.674;9.018;2022-09-09T00:04:32;16.40;99.90
4556;DHT22;2290;48.674;9.018;2022-09-09T00:10:19;16.30;99.90
4556;DHT22;2290;48.674;9.018;2022-09-09T00:13:05;16.30;99.90
4556;DHT22;2290;48.674;9.018;2022-09-09T00:15:42;16.40;99.90
4556;DHT22;2290;48.674;9.018;2022-09-09T00:21:33;16.20;99.90
4556;DHT22;2290;48.674;9.018;2022-09-09T00:24:23;16.30;99.90
4556;DHT22;2290;48.674;9.018;2022-09-09T00:26:56;16.30;99.90
4556;DHT22;2290;48.674;9.018;2022-09-09T00:29:57;16.30;99.90
4556;DHT22;2290;48.674;9.018;2022-09-09T00:32:28;16.40;99.90
4556;DHT22;2290;48.674;9.018;2022-09-09T00:34:58;16.40;99.90
4556;DHT22;2290;48.674;9.018;2022-09-09T00:37:27;16.40;99.90
4556;DHT22;2290;48.674;9.018;2022-09-09T00:39:58;16.50;99.90
4556;DHT22;2290;48.674;9.018;2022-09-09T00:42:30;16.60;99.90
4556;DHT22;2290;48.674;9.018;2022-09-09T00:45:16;16.50;99.90
4556;DHT22;2290;48.674;9.018;2022-09-09T00:47:49;16.70;99.90
4556;DHT22;2290;48.674;9.018;2022-09-09T00:58:13;16.70;99.90
4556;DHT22;2290;48.674;9.018;2022-09-09T01:00:45;16.80;99.90
4556;DHT22;2290;48.674;9.018;2022-09-09T01:03:33;16.80;99.90
4556;DHT22;2290;48.674;9.018;2022-09-09T01:06:00;16.80;99.90
4556;DHT22;2290;48.674;9.018;2022-09-09T01:11:27;16.80;99.90
4556;DHT22;2290;48.674;9.018;2022-09-09T01:14:23;16.80;99.90
4556;DHT22;2290;48.674;9.018;2022-09-09T01:16:54;16.80;99.90
4556;DHT22;2290;48.674;9.018;2022-09-09T01:19:37;16.70;99.90
4556;DHT22;2290;48.674;9.018;2022-09-09T01:25:27;16.60;99.90
4556;DHT22;2290;48.674;9.018;2022-09-09T01:27:57;16.50;99.90
4556;DHT22;2290;48.674;9.018;2022-09-09T01:30:25;16.50;99.90
4556;DHT22;2290;48.674;9.018;2022-09-09T01:32:55;16.50;99.90
4556;DHT22;2290;48.674;9.018;2022-09-09T01:37:49;16.60;99.90
4556;DHT22;2290;48.674;9.018;2022-09-09T01:40:16;16.70;99.90
4556;DHT22;2290;48.674;9.018;2022-09-09T01:42:41;16.70;99.90
4556;DHT22;2290;48.674;9.018;2022-09-09T01:45:07;16.70;99.90
4556;DHT22;2290;48.674;9.018;2022-09-09T01:47:34;16.70;99.90
4556;DHT22;2290;48.674;9.018;2022-09-09T01:50:01;16.60;99.90
4556;DHT22;2290;48.674;9.018;2022-09-09T01:52:29;16.60;99.90
4556;DHT22;2290;48.674;9.018;2022-09-09T01:54:55;16.50;99.90
4556;DHT22;2290;48.674;9.018;2022-09-09T01:57:32;16.50;99.90
4556;DHT22;2290;48.674;9.018;2022-09-09T02:00:06;16.50;99.90
4556;DHT22;2290;48.674;9.018;2022-09-09T02:05:37;16.50;99.90
4556;DHT22;2290;48.674;9.018;2022-09-09T02:08:10;16.50;99.90
4556;DHT22;2290;48.674;9.018;2022-09-09T02:10:45;16.50;99.90
4556;DHT22;2290;48.674;9.018;2022-09-09T02:13:17;16.50;99.90
4556;DHT22;2290;48.674;9.018;2022-09-09T02:15:55;16.50;99.90
4556;DHT22;2290;48.674;9.018;2022-09-09T02:18:58;16.50;99.90
4556;DHT22;2290;48.674;9.018;2022-09-09T02:21:28;16.40;99.90
4556;DHT22;2290;48.674;9.018;2022-09-09T02:23:56;16.40;99.90
4556;DHT22;2290;48.674;9.018;2022-09-09T02:26:25;16.30;99.90
4556;DHT22;2290;48.674;9.018;2022-09-09T02:28:54;16.30;99.90
4556;DHT22;2290;48.674;9.018;2022-09-09T02:31:22;16.40;99.90
4556;DHT22;2290;48.674;9.018;2022-09-09T02:33:56;16.30;99.90
4556;DHT22;2290;48.674;9.018;2022-09-09T02:36:24;16.30;99.90
4556;DHT22;2290;48.674;9.018;2022-09-09T02:38:51;16.20;99.90
4556;DHT22;2290;48.674;9.018;2022-09-09T02:41:40;16.20;99.90
4556;DHT22;2290;48.674;9.018;2022-09-09T02:44:10;16.30;99.90
4556;DHT22;2290;48.674;9.018;2022-09-09T02:49:30;16.20;99.90
4556;DHT22;2290;48.674;9.018;2022-09-09T02:52:06;16.10;99.90
4556;DHT22;2290;48.674;9.018;2022-09-09T02:54:33;16.00;99.90
4556;DHT22;2290;48.674;9.018;2022-09-09T02:57:08;16.10;99.90
4556;DHT22;2290;48.674;9.018;2022-09-09T02:59:37;16.20;99.90
4556;DHT22;2290;48.674;9.018;2022-09-09T03:02:03;16.20;99.90
4556;DHT22;2290;48.674;9.018;2022-09-09T03:04:29;16.20;99.90
4556;DHT22;2290;48.674;9.018;2022-09-09T03:06:57;16.20;99.90
4556;DHT22;2290;48.674;9.018;2022-09-09T03:09:24;16.20;99.90
4556;DHT22;2290;48.674;9.018;2022-09-09T03:11:52;16.30;99.90
4556;DHT22;2290;48.674;9.018;2022-09-09T03:14:20;16.30;99.90
4556;DHT22;2290;48.674;9.018;2022-09-09T03:16:47;16.20;99.90
4556;DHT22;2290;48.674;9.018;2022-09-09T03:19:13;16.10;99.90
4556;DHT22;2290;48.674;9.018;2022-09-09T03:21:39;16.10;99.90
4556;DHT22;2290;48.674;9.018;2022-09-09T03:24:04;16.10;99.90
4556;DHT22;2290;48.674;9.018;2022-09-09T03:26:32;16.10;99.90
4556;DHT22;2290;48.674;9.018;2022-09-09T03:28:57;16.10;99.90
4556;DHT22;2290;48.674;9.018;2022-09-09T03:31:26;16.20;99.90
4556;DHT22;2290;48.674;9.018;2022-09-09T03:33:57;16.10;99.90
4556;DHT22;2290;48.674;9.018;2022-09-09T03:36:24;16.10;99.90
4556;DHT22;2290;48.674;9.018;2022-09-09T03:38:50;16.20;99.90
4556;DHT22;2290;48.674;9.018;2022-09-09T03:41:16;16.10;99.90
4556;DHT22;2290;48.674;9.018;2022-09-09T03:43:42;16.20;99.90
4556;DHT22;2290;48.674;9.018;2022-09-09T03:46:07;16.20;99.90
4556;DHT22;2290;48.674;9.018;2022-09-09T03:48:33;16.10;99.90
4556;DHT22;2290;48.674;9.018;2022-09-09T03:50:59;16.50;99.90
4556;DHT22;2290;48.674;9.018;2022-09-09T03:53:26;16.10;99.90
4556;DHT22;2290;48.674;9.018;2022-09-09T03:55:54;16.10;99.90
4556;DHT22;2290;48.674;9.018;2022-09-09T03:58:21;16.00;99.90
4556;DHT22;2290;48.674;9.018;2022-09-09T04:00:57;15.90;99.90
4556;DHT22;2290;48.674;9.018;2022-09-09T04:03:24;16.00;99.90
4556;DHT22;2290;48.674;9.018;2022-09-09T04:05:53;16.00;99.90
4556;DHT22;2290;48.674;9.018;2022-09-09T04:08:20;16.00;99.90
4556;DHT22;2290;48.674;9.018;2022-09-09T04:10:49;16.00;99.90
4556;DHT22;2290;48.674;9.018;2022-09-09T04:13:17;16.00;99.90
4556;DHT22;2290;48.674;9.018;2022-09-09T04:15:44;16.00;99.90
4556;DHT22;2290;48.674;9.018;2022-09-09T04:18:15;15.90;99.90
4556;DHT22;2290;48.674;9.018;2022-09-09T04:20:41;15.80;99.90
4556;DHT22;2290;48.674;9.018;2022-09-09T04:23:08;16.30;99.90
4556;DHT22;2290;48.674;9.018;2022-09-09T04:25:34;15.80;99.90
4556;DHT22;2290;48.674;9.018;2022-09-09T04:27:59;15.90;99.90
4556;DHT22;2290;48.674;9.018;2022-09-09T04:30:25;15.90;99.90
4556;DHT22;2290;48.674;9.018;2022-09-09T04:32:53;15.80;99.90
4556;DHT22;2290;48.674;9.018;2022-09-09T04:35:19;15.90;99.90
4556;DHT22;2290;48.674;9.018;2022-09-09T04:37:45;16.20;99.90
4556;DHT22;2290;48.674;9.018;2022-09-09T04:40:11;15.80;99.90
4556;DHT22;2290;48.674;9.018;2022-09-09T04:42:36;15.80;99.90
4556;DHT22;2290;48.674;9.018;2022-09-09T04:45:02;15.70;99.90
4556;DHT22;2290;48.674;9.018;2022-09-09T04:47:28;15.60;99.90
4556;DHT22;2290;48.674;9.018;2022-09-09T04:49:54;15.60;99.90
4556;DHT22;2290;48.674;9.018;2022-09-09T04:52:20;15.70;99.90
4556;DHT22;2290;48.674;9.018;2022-09-09T04:54:46;15.70;99.90
4556;DHT22;2290;48.674;9.018;2022-09-09T04:57:12;15.80;99.90
4556;DHT22;2290;48.674;9.018;2022-09-09T04:59:37;15.70;99.90
4556;DHT22;2290;48.674;9.018;2022-09-09T05:02:05;16.30;99.90
4556;DHT22;2290;48.674;9.018;2022-09-09T05:04:30;15.50;99.90
4556;DHT22;2290;48.674;9.018;2022-09-09T05:06:56;15.40;99.90
4556;DHT22;2290;48.674;9.018;2022-09-09T05:09:21;16.10;99.90
4556;DHT22;2290;48.674;9.018;2022-09-09T05:11:47;16.60;99.90
4556;DHT22;2290;48.674;9.018;2022-09-09T05:14:13;16.50;99.90
4556;DHT22;2290;48.674;9.018;2022-09-09T05:16:40;15.60;99.90
4556;DHT22;2290;48.674;9.018;2022-09-09T05:19:05;15.60;99.90
4556;DHT22;2290;48.674;9.018;2022-09-09T05:21:33;15.60;99.90
4556;DHT22;2290;48.674;9.018;2022-09-09T05:23:59;15.80;99.90
4556;DHT22;2290;48.674;9.018;2022-09-09T05:26:25;15.80;99.90
4556;DHT22;2290;48.674;9.018;2022-09-09T05:28:51;15.80;99.90
4556;DHT22;2290;48.674;9.018;2022-09-09T05:31:18;15.80;99.90
4556;DHT22;2290;48.674;9.018;2022-09-09T05:33:45;15.80;99.90
4556;DHT22;2290;48.674;9.018;2022-09-09T05:36:13;15.90;99.90
4556;DHT22;2290;48.674;9.018;2022-09-09T05:38:39;15.90;99.90
4556;DHT22;2290;48.674;9.018;2022-09-09T05:41:06;15.90;99.90
4556;DHT22;2290;48.674;9.018;2022-09-09T05:43:32;15.90;99.90
4556;DHT22;2290;48.674;9.018;2022-09-09T05:46:00;15.90;99.90
4556;DHT22;2290;48.674;9.018;2022-09-09T05:48:30;15.80;99.90
4556;DHT22;2290;48.674;9.018;2022-09-09T05:50:56;15.80;99.90
4556;DHT22;2290;48.674;9.018;2022-09-09T05:53:22;15.90;99.90
4556;DHT22;2290;48.674;9.018;2022-09-09T05:55:47;15.90;99.90
4556;DHT22;2290;48.674;9.018;2022-09-09T05:58:13;15.80;99.90
4556;DHT22;2290;48.674;9.018;2022-09-09T06:00:42;15.90;99.90
4556;DHT22;2290;48.674;9.018;2022-09-09T06:03:11;16.00;99.90
4556;DHT22;2290;48.674;9.018;2022-09-09T06:05:36;15.80;99.90
4556;DHT22;2290;48.674;9.018;2022-09-09T06:08:03;15.80;99.90
4556;DHT22;2290;48.674;9.018;2022-09-09T06:10:28;15.90;99.90
4556;DHT22;2290;48.674;9.018;2022-09-09T06:12:54;15.80;99.90
4556;DHT22;2290;48.674;9.018;2022-09-09T06:15:19;15.90;99.90
4556;DHT22;2290;48.674;9.018;2022-09-09T06:17:45;15.90;99.90
4556;DHT22;2290;48.674;9.018;2022-09-09T06:20:11;16.00;99.90
4556;DHT22;2290;48.674;9.018;2022-09-09T06:22:39;16.00;99.90
4556;DHT22;2290;48.674;9.018;2022-09-09T06:25:07;16.10;99.90
4556;DHT22;2290;48.674;9.018;2022-09-09T06:27:33;16.10;99.90
4556;DHT22;2290;48.674;9.018;2022-09-09T06:29:58;16.10;99.90
4556;DHT22;2290;48.674;9.018;2022-09-09T06:32:24;16.10;99.90
4556;DHT22;2290;48.674;9.018;2022-09-09T06:34:51;16.20;99.90
4556;DHT22;2290;48.674;9.018;2022-09-09T06:37:17;16.20;99.90
4556;DHT22;2290;48.674;9.018;2022-09-09T06:39:42;16.30;99.90
4556;DHT22;2290;48.674;9.018;2022-09-09T06:42:08;16.50;99.90
4556;DHT22;2290;48.674;9.018;2022-09-09T06:44:34;16.60;99.90
4556;DHT22;2290;48.674;9.018;2022-09-09T06:46:59;16.60;99.90
4556;DHT22;2290;48.674;9.018;2022-09-09T06:49:25;16.70;99.90
4556;DHT22;2290;48.674;9.018;2022-09-09T06:51:50;16.50;99.90
4556;DHT22;2290;48.674;9.018;2022-09-09T06:54:17;16.70;99.90
4556;DHT22;2290;48.674;9.018;2022-09-09T06:56:43;16.70;99.90
4556;DHT22;2290;48.674;9.018;2022-09-09T06:59:10;16.70;99.90
4556;DHT22;2290;48.674;9.018;2022-09-09T07:01:42;16.80;99.90
4556;DHT22;2290;48.674;9.018;2022-09-09T07:04:09;16.90;99.90
4556;DHT22;2290;48.674;9.018;2022-09-09T07:06:41;17.00;99.90
4556;DHT22;2290;48.674;9.018;2022-09-09T07:09:11;17.00;99.90
4556;DHT22;2290;48.674;9.018;2022-09-09T07:11:39;16.90;99.90
4556;DHT22;2290;48.674;9.018;2022-09-09T07:14:07;16.90;99.90
4556;DHT22;2290;48.674;9.018;2022-09-09T07:16:33;16.90;99.90
4556;DHT22;2290;48.674;9.018;2022-09-09T07:19:03;16.90;99.90
4556;DHT22;2290;48.674;9.018;2022-09-09T07:21:30;16.90;99.90
4556;DHT22;2290;48.674;9.018;2022-09-09T07:23:56;17.50;99.90
4556;DHT22;2290;48.674;9.018;2022-09-09T07:26:24;16.90;99.90
4556;DHT22;2290;48.674;9.018;2022-09-09T07:28:50;17.20;99.90
4556;DHT22;2290;48.674;9.018;2022-09-09T07:31:18;17.30;99.90
4556;DHT22;2290;48.674;9.018;2022-09-09T07:33:46;17.40;99.90
4556;DHT22;2290;48.674;9.018;2022-09-09T07:36:16;17.60;99.90
4556;DHT22;2290;48.674;9.018;2022-09-09T07:38:47;17.60;99.90
4556;DHT22;2290;48.674;9.018;2022-09-09T07:41:20;17.90;99.90
4556;DHT22;2290;48.674;9.018;2022-09-09T07:43:47;17.80;99.90
4556;DHT22;2290;48.674;9.018;2022-09-09T07:46:14;17.70;99.90
4556;DHT22;2290;48.674;9.018;2022-09-09T07:48:45;17.90;99.90
4556;DHT22;2290;48.674;9.018;2022-09-09T07:51:13;17.90;99.90
4556;DHT22;2290;48.674;9.018;2022-09-09T07:53:43;17.70;99.90
4556;DHT22;2290;48.674;9.018;2022-09-09T07:56:11;17.80;99.90
4556;DHT22;2290;48.674;9.018;2022-09-09T07:58:37;17.90;99.90
4556;DHT22;2290;48.674;9.018;2022-09-09T08:01:12;18.10;99.90
4556;DHT22;2290;48.674;9.018;2022-09-09T08:03:38;18.20;99.90
4556;DHT22;2290;48.674;9.018;2022-09-09T08:06:06;18.10;99.90
4556;DHT22;2290;48.674;9.018;2022-09-09T08:08:36;18.20;99.90
4556;DHT22;2290;48.674;9.018;2022-09-09T08:11:12;18.70;99.90
4556;DHT22;2290;48.674;9.018;2022-09-09T08:13:38;18.30;99.90
4556;DHT22;2290;48.674;9.018;2022-09-09T08:16:13;18.30;99.90
4556;DHT22;2290;48.674;9.018;2022-09-09T08:18:39;18.60;99.90
4556;DHT22;2290;48.674;9.018;2022-09-09T08:21:13;18.70;99.90
4556;DHT22;2290;48.674;9.018;2022-09-09T08:23:40;18.80;99.90
4556;DHT22;2290;48.674;9.018;2022-09-09T08:26:14;18.90;99.90
4556;DHT22;2290;48.674;9.018;2022-09-09T08:28:41;18.70;99.90
4556;DHT22;2290;48.674;9.018;2022-09-09T08:31:15;18.80;99.90
4556;DHT22;2290;48.674;9.018;2022-09-09T08:33:42;18.80;99.90
4556;DHT22;2290;48.674;9.018;2022-09-09T08:36:13;19.00;99.90
4556;DHT22;2290;48.674;9.018;2022-09-09T08:38:41;19.20;99.90
4556;DHT22;2290;48.674;9.018;2022-09-09T08:41:45;19.30;99.90
4556;DHT22;2290;48.674;9.018;2022-09-09T08:58:17;19.40;99.90
4556;DHT22;2290;48.674;9.018;2022-09-09T09:03:37;19.50;99.90
4556;DHT22;2290;48.674;9.018;2022-09-09T09:08:43;18.60;99.90
4556;DHT22;2290;48.674;9.018;2022-09-09T09:11:12;18.30;99.90
4556;DHT22;2290;48.674;9.018;2022-09-09T09:16:48;17.80;99.90
4556;DHT22;2290;48.674;9.018;2022-09-09T09:19:17;17.70;99.90
4556;DHT22;2290;48.674;9.018;2022-09-09T09:21:45;17.70;99.90
4556;DHT22;2290;48.674;9.018;2022-09-09T09:24:23;17.50;99.90
4556;DHT22;2290;48.674;9.018;2022-09-09T09:26:52;17.80;99.90
4556;DHT22;2290;48.674;9.018;2022-09-09T09:29:19;18.10;99.90
4556;DHT22;2290;48.674;9.018;2022-09-09T09:32:03;18.10;99.90
4556;DHT22;2290;48.674;9.018;2022-09-09T09:34:29;18.00;99.90
4556;DHT22;2290;48.674;9.018;2022-09-09T09:36:56;18.10;99.90
4556;DHT22;2290;48.674;9.018;2022-09-09T09:39:31;18.60;99.90
4556;DHT22;2290;48.674;9.018;2022-09-09T09:42:10;18.50;99.90
4556;DHT22;2290;48.674;9.018;2022-09-09T09:44:39;18.80;99.90
4556;DHT22;2290;48.674;9.018;2022-09-09T09:47:20;18.90;99.90
4556;DHT22;2290;48.674;9.018;2022-09-09T09:49:54;19.30;99.90
4556;DHT22;2290;48.674;9.018;2022-09-09T09:52:24;19.60;99.90
4556;DHT22;2290;48.674;9.018;2022-09-09T09:54:51;19.90;99.90
4556;DHT22;2290;48.674;9.018;2022-09-09T09:57:18;20.00;99.90
4556;DHT22;2290;48.674;9.018;2022-09-09T09:59:44;20.20;99.90
4556;DHT22;2290;48.674;9.018;2022-09-09T10:02:20;20.30;99.90
4556;DHT22;2290;48.674;9.018;2022-09-09T10:05:03;20.60;99.90
4556;DHT22;2290;48.674;9.018;2022-09-09T10:07:29;20.60;99.90
4556;DHT22;2290;48.674;9.018;2022-09-09T10:09:56;20.70;99.90
4556;DHT22;2290;48.674;9.018;2022-09-09T10:13:07;20.60;99.90
4556;DHT22;2290;48.674;9.018;2022-09-09T10:16:10;20.30;99.90
4556;DHT22;2290;48.674;9.018;2022-09-09T10:18:32;20.10;99.90
4556;DHT22;2290;48.674;9.018;2022-09-09T10:21:32;20.00;99.90
4556;DHT22;2290;48.674;9.018;2022-09-09T10:34:57;19.60;99.90
4556;DHT22;2290;48.674;9.018;2022-09-09T10:42:59;20.10;99.90
4556;DHT22;2290;48.674;9.018;2022-09-09T10:45:45;20.20;99.90
4556;DHT22;2290;48.674;9.018;2022-09-09T10:48:39;20.20;99.90
4556;DHT22;2290;48.674;9.018;2022-09-09T10:56:57;20.40;99.90
4556;DHT22;2290;48.674;9.018;2022-09-09T10:59:28;20.80;99.90
4556;DHT22;2290;48.674;9.018;2022-09-09T11:02:02;20.70;99.90
4556;DHT22;2290;48.674;9.018;2022-09-09T11:04:44;20.40;99.90
4556;DHT22;2290;48.674;9.018;2022-09-09T11:07:21;20.20;99.90
4556;DHT22;2290;48.674;9.018;2022-09-09T11:09:54;19.90;99.90
4556;DHT22;2290;48.674;9.018;2022-09-09T11:12:23;19.50;99.90
4556;DHT22;2290;48.674;9.018;2022-09-09T11:14:56;19.20;99.90
4556;DHT22;2290;48.674;9.018;2022-09-09T11:17:26;18.70;99.90
4556;DHT22;2290;48.674;9.018;2022-09-09T11:19:54;18.30;99.90
4556;DHT22;2290;48.674;9.018;2022-09-09T11:22:30;18.10;99.90
4556;DHT22;2290;48.674;9.018;2022-09-09T11:27:31;17.80;99.90
4556;DHT22;2290;48.674;9.018;2022-09-09T11:35:33;17.50;99.90
4556;DHT22;2290;48.674;9.018;2022-09-09T11:40:41;17.50;99.90
4556;DHT22;2290;48.674;9.018;2022-09-09T11:43:27;17.70;99.90
4556;DHT22;2290;48.674;9.018;2022-09-09T11:45:56;17.70;99.90
4556;DHT22;2290;48.674;9.018;2022-09-09T11:48:41;17.80;99.90
4556;DHT22;2290;48.674;9.018;2022-09-09T11:53:59;18.10;99.90
4556;DHT22;2290;48.674;9.018;2022-09-09T12:01:35;18.20;99.90
4556;DHT22;2290;48.674;9.018;2022-09-09T12:04:17;18.50;99.90
4556;DHT22;2290;48.674;9.018;2022-09-09T12:06:53;18.70;99.90
4556;DHT22;2290;48.674;9.018;2022-09-09T12:09:31;18.60;99.90
4556;DHT22;2290;48.674;9.018;2022-09-09T12:17:29;19.30;99.90
4556;DHT22;2290;48.674;9.018;2022-09-09T12:20:49;19.70;99.90
4556;DHT22;2290;48.674;9.018;2022-09-09T12:26:10;20.50;99.90
4556;DHT22;2290;48.674;9.018;2022-09-09T12:29:00;20.50;99.90
4556;DHT22;2290;48.674;9.018;2022-09-09T12:31:39;20.00;99.90
4556;DHT22;2290;48.674;9.018;2022-09-09T12:34:17;19.70;99.90
4556;DHT22;2290;48.674;9.018;2022-09-09T12:36:51;19.50;99.90
4556;DHT22;2290;48.674;9.018;2022-09-09T12:39:29;19.60;99.90
4556;DHT22;2290;48.674;9.018;2022-09-09T12:41:59;19.50;99.90
4556;DHT22;2290;48.674;9.018;2022-09-09T12:44:25;19.50;99.90
4556;DHT22;2290;48.674;9.018;2022-09-09T12:46:54;19.50;99.90
4556;DHT22;2290;48.674;9.018;2022-09-09T12:49:33;19.70;99.90
4556;DHT22;2290;48.674;9.018;2022-09-09T12:52:06;19.60;99.90
4556;DHT22;2290;48.674;9.018;2022-09-09T12:54:35;19.60;99.90
4556;DHT22;2290;48.674;9.018;2022-09-09T12:57:01;19.50;99.90
4556;DHT22;2290;48.674;9.018;2022-09-09T12:59:39;19.50;99.90
4556;DHT22;2290;48.674;9.018;2022-09-09T13:02:23;19.30;99.90
4556;DHT22;2290;48.674;9.018;2022-09-09T13:04:50;19.40;99.90
4556;DHT22;2290;48.674;9.018;2022-09-09T13:07:17;19.80;99.90
4556;DHT22;2290;48.674;9.018;2022-09-09T13:09:45;20.40;99.90
4556;DHT22;2290;48.674;9.018;2022-09-09T13:12:18;20.70;99.90
4556;DHT22;2290;48.674;9.018;2022-09-09T13:14:47;21.00;99.90
4556;DHT22;2290;48.674;9.018;2022-09-09T13:17:26;20.90;99.90
4556;DHT22;2290;48.674;9.018;2022-09-09T13:19:55;21.40;99.90
4556;DHT22;2290;48.674;9.018;2022-09-09T13:22:35;21.70;99.90
4556;DHT22;2290;48.674;9.018;2022-09-09T13:27:41;22.50;99.90
4556;DHT22;2290;48.674;9.018;2022-09-09T13:30:29;22.60;99.90
4556;DHT22;2290;48.674;9.018;2022-09-09T13:35:30;21.70;99.90
4556;DHT22;2290;48.674;9.018;2022-09-09T13:37:56;22.20;99.90
4556;DHT22;2290;48.674;9.018;2022-09-09T13:40:24;22.60;99.90
4556;DHT22;2290;48.674;9.018;2022-09-09T13:42:56;22.80;99.90
4556;DHT22;2290;48.674;9.018;2022-09-09T13:45:25;23.20;99.90
4556;DHT22;2290;48.674;9.018;2022-09-09T13:47:55;22.80;99.10
4556;DHT22;2290;48.674;9.018;2022-09-09T13:50:28;22.70;99.00
4556;DHT22;2290;48.674;9.018;2022-09-09T13:52:58;22.60;99.40
4556;DHT22;2290;48.674;9.018;2022-09-09T13:55:29;22.60;98.90
4556;DHT22;2290;48.674;9.018;2022-09-09T13:57:57;22.30;97.70
4556;DHT22;2290;48.674;9.018;2022-09-09T14:00:24;22.10;98.40
4556;DHT22;2290;48.674;9.018;2022-09-09T14:02:50;21.90;98.00
4556;DHT22;2290;48.674;9.018;2022-09-09T14:05:17;22.00;97.60
4556;DHT22;2290;48.674;9.018;2022-09-09T14:07:44;22.10;98.80
4556;DHT22;2290;48.674;9.018;2022-09-09T14:10:11;22.60;97.60
4556;DHT22;2290;48.674;9.018;2022-09-09T14:12:37;22.60;96.60
4556;DHT22;2290;48.674;9.018;2022-09-09T14:15:04;22.50;96.40
4556;DHT22;2290;48.674;9.018;2022-09-09T14:17:31;22.50;97.00
4556;DHT22;2290;48.674;9.018;2022-09-09T14:19:57;22.90;96.80
4556;DHT22;2290;48.674;9.018;2022-09-09T14:22:23;23.30;96.90
4556;DHT22;2290;48.674;9.018;2022-09-09T14:24:49;23.50;95.80
4556;DHT22;2290;48.674;9.018;2022-09-09T14:27:16;23.20;94.70
4556;DHT22;2290;48.674;9.018;2022-09-09T14:29:41;22.60;94.20
4556;DHT22;2290;48.674;9.018;2022-09-09T14:32:08;22.40;95.00
4556;DHT22;2290;48.674;9.018;2022-09-09T14:34:34;22.40;94.50
4556;DHT22;2290;48.674;9.018;2022-09-09T14:37:00;22.40;94.70
4556;DHT22;2290;48.674;9.018;2022-09-09T14:39:26;22.70;94.90
4556;DHT22;2290;48.674;9.018;2022-09-09T14:41:52;23.10;94.50
4556;DHT22;2290;48.674;9.018;2022-09-09T14:44:17;23.60;94.00
4556;DHT22;2290;48.674;9.018;2022-09-09T14:46:43;24.30;93.80
4556;DHT22;2290;48.674;9.018;2022-09-09T14:49:09;24.50;93.00
4556;DHT22;2290;48.674;9.018;2022-09-09T14:51:36;24.50;93.00
4556;DHT22;2290;48.674;9.018;2022-09-09T14:54:02;23.80;92.90
4556;DHT22;2290;48.674;9.018;2022-09-09T14:56:30;24.70;93.00
4556;DHT22;2290;48.674;9.018;2022-09-09T14:58:58;24.80;92.10
4556;DHT22;2290;48.674;9.018;2022-09-09T15:01:25;24.50;92.50
4556;DHT22;2290;48.674;9.018;2022-09-09T15:04:02;24.80;92.10
4556;DHT22;2290;48.674;9.018;2022-09-09T15:06:30;24.90;92.70
4556;DHT22;2290;48.674;9.018;2022-09-09T15:08:56;25.20;92.70
4556;DHT22;2290;48.674;9.018;2022-09-09T15:11:24;26.70;91.60
4556;DHT22;2290;48.674;9.018;2022-09-09T15:13:51;27.30;91.80
4556;DHT22;2290;48.674;9.018;2022-09-09T15:16:19;28.90;89.00
4556;DHT22;2290;48.674;9.018;2022-09-09T15:18:45;29.70;85.00
4556;DHT22;2290;48.674;9.018;2022-09-09T15:21:13;30.10;84.30
4556;DHT22;2290;48.674;9.018;2022-09-09T15:23:39;30.50;82.30
4556;DHT22;2290;48.674;9.018;2022-09-09T15:26:05;31.30;79.40
4556;DHT22;2290;48.674;9.018;2022-09-09T15:28:36;31.90;76.50
4556;DHT22;2290;48.674;9.018;2022-09-09T15:31:06;32.00;74.10
4556;DHT22;2290;48.674;9.018;2022-09-09T15:33:33;30.70;72.50
4556;DHT22;2290;48.674;9.018;2022-09-09T15:35:59;28.40;75.70
4556;DHT22;2290;48.674;9.018;2022-09-09T15:38:24;26.20;79.80
4556;DHT22;2290;48.674;9.018;2022-09-09T15:40:54;24.60;84.30
4556;DHT22;2290;48.674;9.018;2022-09-09T15:43:20;23.50;86.80
4556;DHT22;2290;48.674;9.018;2022-09-09T15:45:53;22.90;88.90
4556;DHT22;2290;48.674;9.018;2022-09-09T15:48:30;22.30;90.30
4556;DHT22;2290;48.674;9.018;2022-09-09T15:51:03;22.10;91.00
4556;DHT22;2290;48.674;9.018;2022-09-09T15:53:30;21.90;91.90
4556;DHT22;2290;48.674;9.018;2022-09-09T15:55:58;21.70;92.30
4556;DHT22;2290;48.674;9.018;2022-09-09T15:58:23;21.60;92.80
4556;DHT22;2290;48.674;9.018;2022-09-09T16:00:49;21.50;93.30
4556;DHT22;2290;48.674;9.018;2022-09-09T16:03:14;21.30;93.10
4556;DHT22;2290;48.674;9.018;2022-09-09T16:05:40;21.20;93.00
4556;DHT22;2290;48.674;9.018;2022-09-09T16:08:06;21.10;93.30
4556;DHT22;2290;48.674;9.018;2022-09-09T16:10:32;21.00;93.30
4556;DHT22;2290;48.674;9.018;2022-09-09T16:12:58;20.90;93.00
4556;DHT22;2290;48.674;9.018;2022-09-09T16:15:24;20.60;93.50
4556;DHT22;2290;48.674;9.018;2022-09-09T16:17:53;20.60;94.00
4556;DHT22;2290;48.674;9.018;2022-09-09T16:20:19;20.80;94.20
4556;DHT22;2290;48.674;9.018;2022-09-09T16:22:44;20.50;94.40
4556;DHT22;2290;48.674;9.018;2022-09-09T16:25:10;20.40;94.40
4556;DHT22;2290;48.674;9.018;2022-09-09T16:27:35;20.30;95.00
4556;DHT22;2290;48.674;9.018;2022-09-09T16:30:01;20.20;95.00
4556;DHT22;2290;48.674;9.018;2022-09-09T16:32:27;20.20;95.50
4556;DHT22;2290;48.674;9.018;2022-09-09T16:34:53;20.10;95.10
4556;DHT22;2290;48.674;9.018;2022-09-09T16:37:19;20.00;96.10
4556;DHT22;2290;48.674;9.018;2022-09-09T16:39:44;19.70;96.10
4556;DHT22;2290;48.674;9.018;2022-09-09T16:42:10;19.50;96.70
4556;DHT22;2290;48.674;9.018;2022-09-09T16:44:35;19.50;97.10
4556;DHT22;2290;48.674;9.018;2022-09-09T16:47:01;19.50;98.20
4556;DHT22;2290;48.674;9.018;2022-09-09T16:49:27;19.30;98.50
4556;DHT22;2290;48.674;9.018;2022-09-09T16:51:53;19.30;98.80
4556;DHT22;2290;48.674;9.018;2022-09-09T16:54:19;19.00;98.50
4556;DHT22;2290;48.674;9.018;2022-09-09T16:56:47;18.80;99.00
4556;DHT22;2290;48.674;9.018;2022-09-09T16:59:15;18.90;98.60
4556;DHT22;2290;48.674;9.018;2022-09-09T17:01:43;18.80;98.60
4556;DHT22;2290;48.674;9.018;2022-09-09T17:04:20;18.90;99.30
4556;DHT22;2290;48.674;9.018;2022-09-09T17:06:48;18.90;99.80
4556;DHT22;2290;48.674;9.018;2022-09-09T17:09:15;18.90;99.30
4556;DHT22;2290;48.674;9.018;2022-09-09T17:11:40;19.00;99.50
4556;DHT22;2290;48.674;9.018;2022-09-09T17:14:08;18.90;99.90
4556;DHT22;2290;48.674;9.018;2022-09-09T17:16:35;18.90;99.90
4556;DHT22;2290;48.674;9.018;2022-09-09T17:19:02;18.90;99.70
4556;DHT22;2290;48.674;9.018;2022-09-09T17:21:29;19.00;99.90
4556;DHT22;2290;48.674;9.018;2022-09-09T17:23:56;18.70;99.90
4556;DHT22;2290;48.674;9.018;2022-09-09T17:26:28;18.70;99.90
4556;DHT22;2290;48.674;9.018;2022-09-09T17:28:56;18.70;99.90
4556;DHT22;2290;48.674;9.018;2022-09-09T17:31:24;18.70;99.90
4556;DHT22;2290;48.674;9.018;2022-09-09T17:33:50;18.60;99.90
4556;DHT22;2290;48.674;9.018;2022-09-09T17:36:20;18.60;99.90
4556;DHT22;2290;48.674;9.018;2022-09-09T17:38:47;18.70;99.90
4556;DHT22;2290;48.674;9.018;2022-09-09T17:41:25;18.60;99.90
4556;DHT22;2290;48.674;9.018;2022-09-09T17:43:51;18.60;99.90
4556;DHT22;2290;48.674;9.018;2022-09-09T17:46:20;18.60;99.90
4556;DHT22;2290;48.674;9.018;2022-09-09T17:48:48;18.50;99.90
4556;DHT22;2290;48.674;9.018;2022-09-09T17:51:18;18.50;99.90
4556;DHT22;2290;48.674;9.018;2022-09-09T17:53:50;18.40;99.90
4556;DHT22;2290;48.674;9.018;2022-09-09T17:56:19;18.40;99.90
4556;DHT22;2290;48.674;9.018;2022-09-09T17:58:49;18.50;99.90
4556;DHT22;2290;48.674;9.018;2022-09-09T18:01:24;18.30;99.90
4556;DHT22;2290;48.674;9.018;2022-09-09T18:03:51;18.30;99.90
4556;DHT22;2290;48.674;9.018;2022-09-09T18:06:22;18.30;99.90